createdAt,value
2016-04-12T00:00:26.251Z,0
2016-04-12T00:01:26.097Z,0
2016-04-12T00:02:26.193Z,0
2016-04-12T00:03:26.165Z,0
2016-04-12T00:04:26.136Z,0
2016-04-12T00:05:26.123Z,0
2016-04-12T00:06:26.094Z,0
2016-04-12T00:07:26.081Z,0
2016-04-12T00:08:26.074Z,0
2016-04-12T00:09:26.020Z,0
2016-04-12T00:10:25.992Z,0
2016-04-12T00:11:25.979Z,0
2016-04-12T00:12:25.934Z,0
2016-04-12T00:13:25.922Z,0
2016-04-12T00:14:25.893Z,0
2016-04-12T00:15:25.864Z,0
2016-04-12T00:16:25.992Z,0
2016-04-12T00:17:25.822Z,0
2016-04-12T00:18:25.794Z,0
2016-04-12T00:19:25.781Z,0
2016-04-12T00:20:25.752Z,0
2016-04-12T00:21:25.724Z,0
2016-04-12T00:22:25.695Z,0
2016-04-12T00:23:25.683Z,0
2016-04-12T00:24:25.638Z,0
2016-04-12T00:25:25.626Z,0
2016-04-12T00:26:25.596Z,0
2016-04-12T00:27:25.585Z,0
2016-04-12T00:28:25.539Z,0
2016-04-12T00:29:25.527Z,0
2016-04-12T00:30:25.341Z,0
2016-04-12T00:31:25.499Z,0
2016-04-12T00:32:25.155Z,0
2016-04-12T00:33:25.439Z,0
2016-04-12T00:34:25.395Z,0
2016-04-12T00:35:25.365Z,0
2016-04-12T00:36:25.353Z,0
2016-04-12T00:37:25.325Z,0
2016-04-12T00:38:25.312Z,0
2016-04-12T00:39:25.268Z,0
2016-04-12T00:40:25.239Z,0
2016-04-12T00:41:25.226Z,0
2016-04-12T00:42:25.181Z,0
2016-04-12T00:43:25.201Z,0
2016-04-12T00:44:25.140Z,0
2016-04-12T00:45:24.955Z,0
2016-04-12T00:46:25.084Z,0
2016-04-12T00:47:25.070Z,0
2016-04-12T00:48:25.042Z,0
2016-04-12T00:49:25.013Z,0
2016-04-12T00:50:24.986Z,0
2016-04-12T00:51:24.972Z,0
2016-04-12T00:52:24.787Z,0
2016-04-12T00:53:24.914Z,0
2016-04-12T00:54:24.886Z,0
2016-04-12T00:55:24.874Z,0
2016-04-12T00:56:24.845Z,0
2016-04-12T00:57:24.816Z,0
2016-04-12T00:58:24.787Z,0
2016-04-12T00:59:24.775Z,0
2016-04-12T01:00:24.730Z,0
2016-04-12T01:01:24.701Z,0
2016-04-12T01:02:24.689Z,0
2016-04-12T01:03:24.660Z,0
2016-04-12T01:04:24.632Z,0
2016-04-12T01:05:24.618Z,0
2016-04-12T01:06:24.574Z,0
2016-04-12T01:07:24.562Z,0
2016-04-12T01:08:24.377Z,0
2016-04-12T01:09:24.520Z,0
2016-04-12T01:10:24.507Z,0
2016-04-12T01:11:24.463Z,0
2016-04-12T01:12:24.451Z,0
2016-04-12T01:13:24.422Z,0
2016-04-12T01:14:24.392Z,0
2016-04-12T01:15:24.364Z,0
2016-04-12T01:16:24.351Z,0
2016-04-12T01:17:24.308Z,0
2016-04-12T01:18:24.294Z,0
2016-04-12T01:19:24.266Z,0
2016-04-12T01:20:24.237Z,0
2016-04-12T01:21:24.208Z,0
2016-04-12T01:22:24.180Z,0
2016-04-12T01:23:24.152Z,0
2016-04-12T01:24:24.139Z,0
2016-04-12T01:25:24.125Z,0
2016-04-12T01:26:24.082Z,0
2016-04-12T01:27:24.069Z,0
2016-04-12T01:28:24.024Z,0
2016-04-12T01:29:23.996Z,0
2016-04-12T01:30:23.811Z,0
2016-04-12T01:31:23.954Z,0
2016-04-12T01:32:23.941Z,0
2016-04-12T01:33:23.897Z,0
2016-04-12T01:34:23.884Z,0
2016-04-12T01:35:23.840Z,0
2016-04-12T01:36:23.843Z,0
2016-04-12T01:37:23.798Z,0
2016-04-12T01:38:23.785Z,0
2016-04-12T01:39:23.757Z,0
2016-04-12T01:40:23.728Z,0
2016-04-12T01:41:23.700Z,0
2016-04-12T01:42:23.687Z,0
2016-04-12T01:43:23.658Z,0
2016-04-12T01:44:23.615Z,0
2016-04-12T01:45:23.601Z,0
2016-04-12T01:46:23.573Z,0
2016-04-12T01:47:23.544Z,0
2016-04-12T01:48:23.516Z,0
2016-04-12T01:49:23.503Z,0
2016-04-12T01:50:23.474Z,0
2016-04-12T01:51:23.430Z,0
2016-04-12T01:52:23.417Z,0
2016-04-12T01:53:23.404Z,0
2016-04-12T01:54:23.375Z,0
2016-04-12T01:55:23.347Z,0
2016-04-12T01:56:23.319Z,0
2016-04-12T01:57:23.291Z,0
2016-04-12T01:58:23.277Z,0
2016-04-12T01:59:23.263Z,0
2016-04-12T02:00:23.220Z,0
2016-04-12T02:01:23.191Z,0
2016-04-12T02:02:23.163Z,0
2016-04-12T02:03:23.135Z,0
2016-04-12T02:04:23.121Z,0
2016-04-12T02:05:23.093Z,0
2016-04-12T02:06:23.079Z,0
2016-04-12T02:07:23.051Z,0
2016-04-12T02:08:22.866Z,0
2016-04-12T02:09:22.993Z,0
2016-04-12T02:10:22.965Z,0
2016-04-12T02:11:22.936Z,0
2016-04-12T02:12:22.908Z,0
2016-04-12T02:13:22.879Z,0
2016-04-12T02:14:22.867Z,0
2016-04-12T02:15:22.838Z,0
2016-04-12T02:16:22.841Z,0
2016-04-12T02:17:22.781Z,0
2016-04-12T02:18:22.753Z,0
2016-04-12T02:19:22.725Z,0
2016-04-12T02:20:22.727Z,0
2016-04-12T02:21:22.683Z,0
2016-04-12T02:22:22.654Z,0
2016-04-12T02:23:22.625Z,0
2016-04-12T02:24:22.613Z,0
2016-04-12T02:25:22.616Z,0
2016-04-12T02:26:22.649Z,0
2016-04-12T02:27:22.527Z,0
2016-04-12T02:28:22.498Z,0
2016-04-12T02:29:22.485Z,0
2016-04-12T02:30:22.457Z,0
2016-04-12T02:31:22.427Z,0
2016-04-12T02:32:22.415Z,0
2016-04-12T02:33:22.387Z,0
2016-04-12T02:34:22.358Z,0
2016-04-12T02:35:22.174Z,0
2016-04-12T02:36:22.302Z,0
2016-04-12T02:37:22.273Z,0
2016-04-12T02:38:22.244Z,0
2016-04-12T02:39:22.231Z,0
2016-04-12T02:40:22.187Z,0
2016-04-12T02:41:22.190Z,0
2016-04-12T02:42:22.161Z,0
2016-04-12T02:43:22.117Z,0
2016-04-12T02:44:22.104Z,0
2016-04-12T02:45:22.060Z,0
2016-04-12T02:46:22.078Z,0
2016-04-12T02:47:22.018Z,0
2016-04-12T02:48:22.005Z,0
2016-04-12T02:49:21.976Z,0
2016-04-12T02:50:21.948Z,0
2016-04-12T02:51:21.950Z,0
2016-04-12T02:52:21.906Z,0
2016-04-12T02:53:21.862Z,0
2016-04-12T02:54:21.864Z,0
2016-04-12T02:55:21.805Z,0
2016-04-12T02:56:21.824Z,0
2016-04-12T02:57:21.763Z,0
2016-04-12T02:58:21.750Z,0
2016-04-12T02:59:21.721Z,0
2016-04-12T03:00:21.693Z,0
2016-04-12T03:01:21.665Z,0
2016-04-12T03:02:21.855Z,0
2016-04-12T03:03:21.607Z,0
2016-04-12T03:04:21.595Z,0
2016-04-12T03:05:21.566Z,0
2016-04-12T03:06:21.521Z,0
2016-04-12T03:07:21.509Z,0
2016-04-12T03:08:21.481Z,0
2016-04-12T03:09:21.451Z,0
2016-04-12T03:10:21.423Z,0
2016-04-12T03:11:21.410Z,0
2016-04-12T03:12:21.382Z,0
2016-04-12T03:13:21.354Z,0
2016-04-12T03:14:21.325Z,0
2016-04-12T03:15:21.296Z,0
2016-04-12T03:16:21.267Z,0
2016-04-12T03:17:21.505Z,0
2016-04-12T03:18:21.258Z,0
2016-04-12T03:19:21.197Z,0
2016-04-12T03:20:21.170Z,0
2016-04-12T03:21:21.142Z,0
2016-04-12T03:22:21.112Z,0
2016-04-12T03:23:21.100Z,0
2016-04-12T03:24:21.086Z,0
2016-04-12T03:25:21.042Z,0
2016-04-12T03:26:21.030Z,0
2016-04-12T03:27:21.000Z,0
2016-04-12T03:28:20.972Z,0
2016-04-12T03:29:20.943Z,0
2016-04-12T03:30:20.915Z,0
2016-04-12T03:31:20.902Z,0
2016-04-12T03:32:21.091Z,0
2016-04-12T03:33:20.844Z,0
2016-04-12T03:34:20.816Z,0
2016-04-12T03:35:20.804Z,0
2016-04-12T03:36:20.759Z,0
2016-04-12T03:37:20.746Z,0
2016-04-12T03:38:20.718Z,0
2016-04-12T03:39:20.690Z,0
2016-04-12T03:40:20.677Z,0
2016-04-12T03:41:20.632Z,0
2016-04-12T03:42:20.619Z,0
2016-04-12T03:43:20.590Z,0
2016-04-12T03:44:20.578Z,0
2016-04-12T03:45:20.549Z,0
2016-04-12T03:46:20.504Z,0
2016-04-12T03:47:20.679Z,0
2016-04-12T03:48:20.463Z,0
2016-04-12T03:49:20.434Z,0
2016-04-12T03:50:20.406Z,0
2016-04-12T03:51:20.392Z,0
2016-04-12T03:52:20.364Z,0
2016-04-12T03:53:20.336Z,0
2016-04-12T03:54:20.308Z,0
2016-04-12T03:55:20.295Z,0
2016-04-12T03:56:20.266Z,0
2016-04-12T03:57:20.238Z,0
2016-04-12T03:58:20.224Z,0
2016-04-12T03:59:20.181Z,0
2016-04-12T04:00:20.183Z,0
2016-04-12T04:01:20.139Z,0
2016-04-12T04:02:20.266Z,0
2016-04-12T04:03:20.097Z,0
2016-04-12T04:04:20.069Z,0
2016-04-12T04:05:20.041Z,0
2016-04-12T04:06:20.027Z,0
2016-04-12T04:07:19.982Z,4
2016-04-12T04:08:19.954Z,4
2016-04-12T04:09:19.942Z,4
2016-04-12T04:10:19.913Z,4
2016-04-12T04:11:19.901Z,4
2016-04-12T04:12:19.856Z,0
2016-04-12T04:13:19.827Z,0
2016-04-12T04:14:19.815Z,0
2016-04-12T04:15:19.786Z,4
2016-04-12T04:16:19.757Z,4
2016-04-12T04:17:19.837Z,4
2016-04-12T04:18:19.701Z,4
2016-04-12T04:19:19.687Z,4
2016-04-12T04:20:19.659Z,4
2016-04-12T04:21:19.630Z,8
2016-04-12T04:22:19.601Z,8
2016-04-12T04:23:19.573Z,8
2016-04-12T04:24:19.560Z,12
2016-04-12T04:25:19.547Z,12
2016-04-12T04:26:19.503Z,12
2016-04-12T04:27:19.475Z,16
2016-04-12T04:28:19.446Z,16
2016-04-12T04:29:19.433Z,20
2016-04-12T04:30:19.405Z,20
2016-04-12T04:31:19.375Z,24
2016-04-12T04:32:19.347Z,24
2016-04-12T04:33:19.319Z,32
2016-04-12T04:34:19.305Z,36
2016-04-12T04:35:19.277Z,44
2016-04-12T04:36:19.248Z,48
2016-04-12T04:37:19.205Z,52
2016-04-12T04:38:19.207Z,56
2016-04-12T04:39:19.194Z,60
2016-04-12T04:40:19.150Z,64
2016-04-12T04:41:19.121Z,72
2016-04-12T04:42:19.109Z,76
2016-04-12T04:43:19.080Z,88
2016-04-12T04:44:19.035Z,100
2016-04-12T04:45:19.007Z,108
2016-04-12T04:46:19.088Z,116
2016-04-12T04:47:18.981Z,120
2016-04-12T04:48:18.937Z,124
2016-04-12T04:49:18.909Z,128
2016-04-12T04:50:18.896Z,144
2016-04-12T04:51:18.867Z,152
2016-04-12T04:52:18.854Z,156
2016-04-12T04:53:18.825Z,160
2016-04-12T04:54:18.813Z,160
2016-04-12T04:55:18.769Z,160
2016-04-12T04:56:18.740Z,152
2016-04-12T04:57:18.727Z,148
2016-04-12T04:58:18.697Z,148
2016-04-12T04:59:18.670Z,148
2016-04-12T05:00:18.625Z,156
2016-04-12T05:01:18.613Z,180
2016-04-12T05:02:18.600Z,196
2016-04-12T05:03:18.571Z,208
2016-04-12T05:04:18.543Z,220
2016-04-12T05:05:18.530Z,220
2016-04-12T05:06:18.502Z,228
2016-04-12T05:07:18.472Z,244
2016-04-12T05:08:18.304Z,272
2016-04-12T05:09:18.432Z,304
2016-04-12T05:10:18.403Z,324
2016-04-12T05:11:18.384Z,344
2016-04-12T05:12:18.355Z,360
2016-04-12T05:13:18.327Z,372
2016-04-12T05:14:18.298Z,376
2016-04-12T05:15:18.269Z,388
2016-04-12T05:16:18.242Z,408
2016-04-12T05:17:18.212Z,432
2016-04-12T05:18:18.215Z,452
2016-04-12T05:19:18.170Z,476
2016-04-12T05:20:18.142Z,512
2016-04-12T05:21:18.130Z,532
2016-04-12T05:22:18.085Z,564
2016-04-12T05:23:18.072Z,616
2016-04-12T05:24:18.044Z,676
2016-04-12T05:25:18.031Z,724
2016-04-12T05:26:18.003Z,752
2016-04-12T05:27:17.974Z,784
2016-04-12T05:28:17.977Z,820
2016-04-12T05:29:17.932Z,820
2016-04-12T05:30:17.919Z,796
2016-04-12T05:31:17.875Z,788
2016-04-12T05:32:17.846Z,792
2016-04-12T05:33:17.833Z,792
2016-04-12T05:34:17.820Z,800
2016-04-12T05:35:17.824Z,832
2016-04-12T05:36:17.763Z,916
2016-04-12T05:37:17.750Z,996
2016-04-12T05:38:17.707Z,1012
2016-04-12T05:39:17.693Z,1000
2016-04-12T05:40:18.118Z,1000
2016-04-12T05:41:17.684Z,1000
2016-04-12T05:42:17.607Z,1004
2016-04-12T05:43:17.579Z,1044
2016-04-12T05:44:17.566Z,1132
2016-04-12T05:45:17.538Z,1260
2016-04-12T05:46:17.540Z,1388
2016-04-12T05:47:17.512Z,1492
2016-04-12T05:48:17.483Z,1720
2016-04-12T05:49:17.455Z,1940
2016-04-12T05:50:17.254Z,2016
2016-04-12T05:51:17.397Z,2076
2016-04-12T05:52:17.369Z,2256
2016-04-12T05:53:17.341Z,2512
2016-04-12T05:54:17.312Z,2792
2016-04-12T05:55:17.299Z,3112
2016-04-12T05:56:17.114Z,3556
2016-04-12T05:57:17.242Z,4048
2016-04-12T05:58:17.229Z,4488
2016-04-12T05:59:17.200Z,4728
2016-04-12T06:00:17.188Z,4512
2016-04-12T06:01:16.987Z,4036
2016-04-12T06:02:17.161Z,3516
2016-04-12T06:03:17.180Z,3128
2016-04-12T06:04:17.074Z,2824
2016-04-12T06:05:17.044Z,2772
2016-04-12T06:06:17.046Z,2848
2016-04-12T06:07:17.019Z,2724
2016-04-12T06:08:16.990Z,2440
2016-04-12T06:09:16.977Z,2136
2016-04-12T06:10:16.933Z,1836
2016-04-12T06:11:16.920Z,1612
2016-04-12T06:12:16.907Z,1584
2016-04-12T06:13:16.862Z,1736
2016-04-12T06:14:16.850Z,2112
2016-04-12T06:15:16.821Z,2772
2016-04-12T06:16:16.793Z,3432
2016-04-12T06:17:16.780Z,3648
2016-04-12T06:18:16.751Z,3676
2016-04-12T06:19:16.723Z,4052
2016-04-12T06:20:16.709Z,4620
2016-04-12T06:21:16.697Z,4848
2016-04-12T06:22:16.653Z,4828
2016-04-12T06:23:16.640Z,4700
2016-04-12T06:24:16.627Z,4476
2016-04-12T06:25:16.598Z,4180
2016-04-12T06:26:16.570Z,3896
2016-04-12T06:27:16.541Z,3760
2016-04-12T06:28:16.527Z,3596
2016-04-12T06:29:16.500Z,3496
2016-04-12T06:30:16.471Z,3404
2016-04-12T06:31:16.443Z,3488
2016-04-12T06:32:16.430Z,3780
2016-04-12T06:33:16.401Z,4356
2016-04-12T06:34:16.372Z,4564
2016-04-12T06:35:16.360Z,4332
2016-04-12T06:36:16.347Z,4068
2016-04-12T06:37:16.334Z,3888
2016-04-12T06:38:16.290Z,3700
2016-04-12T06:39:16.277Z,3608
2016-04-12T06:40:16.249Z,3576
2016-04-12T06:41:16.220Z,3712
2016-04-12T06:42:16.206Z,4140
2016-04-12T06:43:16.178Z,4952
2016-04-12T06:44:16.306Z,5944
2016-04-12T06:45:16.121Z,6944
2016-04-12T06:46:16.108Z,7608
2016-04-12T06:47:16.079Z,8348
2016-04-12T06:48:16.098Z,8816
2016-04-12T06:49:16.037Z,8068
2016-04-12T06:50:16.009Z,7672
2016-04-12T06:51:15.997Z,7640
2016-04-12T06:52:15.968Z,8000
2016-04-12T06:53:15.955Z,8748
2016-04-12T06:54:15.926Z,9704
2016-04-12T06:55:15.914Z,10608
2016-04-12T06:56:15.870Z,10932
2016-04-12T06:57:15.856Z,10892
2016-04-12T06:58:15.859Z,11240
2016-04-12T06:59:15.814Z,11616
2016-04-12T07:00:15.786Z,12028
2016-04-12T07:01:15.882Z,12316
2016-04-12T07:02:15.744Z,13216
2016-04-12T07:03:15.732Z,13924
2016-04-12T07:04:16.547Z,13396
2016-04-12T07:05:15.690Z,11892
2016-04-12T07:06:15.662Z,9992
2016-04-12T07:07:15.649Z,8396
2016-04-12T07:08:15.635Z,7504
2016-04-12T07:09:15.607Z,7260
2016-04-12T07:10:15.594Z,7832
2016-04-12T07:11:15.565Z,9176
2016-04-12T07:12:15.537Z,10560
2016-04-12T07:13:15.524Z,11268
2016-04-12T07:14:15.512Z,12024
2016-04-12T07:15:15.467Z,13572
2016-04-12T07:16:15.454Z,15320
2016-04-12T07:17:15.442Z,16196
2016-04-12T07:18:15.475Z,15064
2016-04-12T07:19:15.400Z,13552
2016-04-12T07:20:15.371Z,13160
2016-04-12T07:21:15.359Z,12944
2016-04-12T07:22:15.345Z,12752
2016-04-12T07:23:15.301Z,12352
2016-04-12T07:24:15.288Z,12188
2016-04-12T07:25:15.259Z,12592
2016-04-12T07:26:15.262Z,13716
2016-04-12T07:27:15.234Z,15496
2016-04-12T07:28:15.205Z,16952
2016-04-12T07:29:15.177Z,17068
2016-04-12T07:30:15.164Z,16716
2016-04-12T07:31:15.150Z,16208
2016-04-12T07:32:15.122Z,15460
2016-04-12T07:33:15.375Z,15192
2016-04-12T07:34:15.097Z,16424
2016-04-12T07:35:15.068Z,16104
2016-04-12T07:36:15.054Z,15944
2016-04-12T07:37:15.042Z,16084
2016-04-12T07:38:15.013Z,16520
2016-04-12T07:39:15.001Z,16084
2016-04-12T07:40:15.004Z,15008
2016-04-12T07:41:14.959Z,15052
2016-04-12T07:42:14.949Z,14636
2016-04-12T07:43:14.984Z,14072
2016-04-12T07:44:15.004Z,13312
2016-04-12T07:45:15.039Z,12620
2016-04-12T07:46:15.075Z,12120
2016-04-12T07:47:15.076Z,11856
2016-04-12T07:48:15.159Z,11480
2016-04-12T07:49:15.084Z,13144
2016-04-12T07:50:15.089Z,13744
2016-04-12T07:51:15.078Z,13904
2016-04-12T07:52:15.081Z,14824
2016-04-12T07:53:15.059Z,15892
2016-04-12T07:54:15.067Z,16544
2016-04-12T07:55:15.029Z,16440
2016-04-12T07:56:15.023Z,13412
2016-04-12T07:57:15.032Z,13076
2016-04-12T07:58:15.005Z,15940
2016-04-12T07:59:14.979Z,22784
2016-04-12T08:00:14.953Z,32608
2016-04-12T08:01:14.941Z,40224
2016-04-12T08:02:14.931Z,16288
2016-04-12T08:03:15.044Z,18420
2016-04-12T08:04:14.907Z,12756
2016-04-12T08:05:14.879Z,11076
2016-04-12T08:06:15.210Z,10944
2016-04-12T08:07:14.855Z,11864
2016-04-12T08:08:14.831Z,14748
2016-04-12T08:09:14.819Z,46112
2016-04-12T08:10:14.790Z,30720
2016-04-12T08:11:14.778Z,28480
2016-04-12T08:12:14.765Z,46944
2016-04-12T08:13:14.752Z,55168
2016-04-12T08:14:14.728Z,24256
2016-04-12T08:15:14.716Z,17260
2016-04-12T08:16:14.687Z,14376
2016-04-12T08:17:14.706Z,14800
2016-04-12T08:18:14.583Z,16036
2016-04-12T08:19:14.632Z,21600
2016-04-12T08:20:14.620Z,32352
2016-04-12T08:21:14.607Z,63392
2016-04-12T08:22:14.594Z,59808
2016-04-12T08:23:14.580Z,59968
2016-04-12T08:24:14.584Z,61344
2016-04-12T08:25:14.555Z,61920
2016-04-12T08:26:14.385Z,61824
2016-04-12T08:27:14.529Z,61280
2016-04-12T08:28:14.516Z,60704
2016-04-12T08:29:14.472Z,61216
2016-04-12T08:30:14.460Z,51008
2016-04-12T08:31:14.462Z,25568
2016-04-12T08:32:14.449Z,9724
2016-04-12T08:33:14.623Z,9108
2016-04-12T08:34:14.439Z,8824
2016-04-12T08:35:14.426Z,8500
2016-04-12T08:36:14.398Z,8088
2016-04-12T08:37:14.384Z,7612
2016-04-12T08:38:14.371Z,7088
2016-04-12T08:39:14.359Z,6888
2016-04-12T08:40:14.362Z,6716
2016-04-12T08:41:14.333Z,6476
2016-04-12T08:42:14.320Z,6244
2016-04-12T08:43:14.307Z,6144
2016-04-12T08:44:14.294Z,6116
2016-04-12T08:45:14.281Z,6184
2016-04-12T08:46:14.253Z,6208
2016-04-12T08:47:14.239Z,6196
2016-04-12T08:48:14.430Z,6048
2016-04-12T08:49:14.214Z,5508
2016-04-12T08:50:14.200Z,6248
2016-04-12T08:51:14.172Z,6232
2016-04-12T08:52:14.159Z,6156
2016-04-12T08:53:14.146Z,5936
2016-04-12T08:54:14.133Z,5576
2016-04-12T08:55:14.105Z,6000
2016-04-12T08:56:14.077Z,6520
2016-04-12T08:57:14.063Z,6448
2016-04-12T08:58:14.050Z,6304
2016-04-12T08:59:14.038Z,6360
2016-04-12T09:00:14.024Z,6392
2016-04-12T09:01:14.012Z,6032
2016-04-12T09:02:13.968Z,6148
2016-04-12T09:03:13.970Z,6328
2016-04-12T09:04:13.941Z,6300
2016-04-12T09:05:13.928Z,6296
2016-04-12T09:06:13.900Z,6484
2016-04-12T09:07:13.887Z,6256
2016-04-12T09:08:13.702Z,6768
2016-04-12T09:09:13.834Z,6900
2016-04-12T09:10:13.822Z,6872
2016-04-12T09:11:13.793Z,6568
2016-04-12T09:12:13.781Z,6604
2016-04-12T09:13:13.752Z,6568
2016-04-12T09:14:13.739Z,6392
2016-04-12T09:15:13.741Z,6268
2016-04-12T09:16:13.713Z,6072
2016-04-12T09:17:13.684Z,5948
2016-04-12T09:18:13.672Z,5792
2016-04-12T09:19:13.643Z,5600
2016-04-12T09:20:13.630Z,5540
2016-04-12T09:21:13.601Z,5600
2016-04-12T09:22:13.604Z,5592
2016-04-12T09:23:13.560Z,5464
2016-04-12T09:24:13.563Z,5328
2016-04-12T09:25:13.534Z,5220
2016-04-12T09:26:13.505Z,5136
2016-04-12T09:27:13.493Z,5180
2016-04-12T09:28:13.463Z,5088
2016-04-12T09:29:13.466Z,4976
2016-04-12T09:30:13.438Z,4896
2016-04-12T09:31:13.410Z,4888
2016-04-12T09:32:13.381Z,4844
2016-04-12T09:33:13.368Z,4780
2016-04-12T09:34:13.371Z,4660
2016-04-12T09:35:13.327Z,4672
2016-04-12T09:36:13.329Z,4584
2016-04-12T09:37:13.301Z,4748
2016-04-12T09:38:13.287Z,4836
2016-04-12T09:39:13.259Z,4736
2016-04-12T09:40:13.246Z,4548
2016-04-12T09:41:13.218Z,4524
2016-04-12T09:42:13.205Z,4620
2016-04-12T09:43:13.176Z,4656
2016-04-12T09:44:13.163Z,4532
2016-04-12T09:45:13.150Z,4420
2016-04-12T09:46:13.122Z,4356
2016-04-12T09:47:13.125Z,4320
2016-04-12T09:48:13.080Z,4320
2016-04-12T09:49:13.052Z,4352
2016-04-12T09:50:13.055Z,4372
2016-04-12T09:51:13.025Z,4396
2016-04-12T09:52:12.996Z,4412
2016-04-12T09:53:12.999Z,4440
2016-04-12T09:54:12.972Z,4492
2016-04-12T09:55:12.943Z,4532
2016-04-12T09:56:12.930Z,4688
2016-04-12T09:57:12.916Z,4728
2016-04-12T09:58:12.888Z,4792
2016-04-12T09:59:12.891Z,4804
2016-04-12T10:00:12.863Z,4776
2016-04-12T10:01:12.835Z,4708
2016-04-12T10:02:12.837Z,4564
2016-04-12T10:03:12.807Z,4516
2016-04-12T10:04:12.779Z,4492
2016-04-12T10:05:12.782Z,4340
2016-04-12T10:06:12.737Z,4264
2016-04-12T10:07:12.741Z,4336
2016-04-12T10:08:12.728Z,4380
2016-04-12T10:09:12.684Z,4764
2016-04-12T10:10:12.670Z,4780
2016-04-12T10:11:12.642Z,4664
2016-04-12T10:12:12.661Z,4624
2016-04-12T10:13:12.631Z,4636
2016-04-12T10:14:12.587Z,4648
2016-04-12T10:15:12.605Z,4812
2016-04-12T10:16:12.562Z,4888
2016-04-12T10:17:12.533Z,4840
2016-04-12T10:18:12.536Z,4724
2016-04-12T10:19:12.507Z,4872
2016-04-12T10:20:12.478Z,4952
2016-04-12T10:21:12.481Z,4408
2016-04-12T10:22:12.438Z,5024
2016-04-12T10:23:12.425Z,5576
2016-04-12T10:24:12.411Z,5708
2016-04-12T10:25:12.398Z,6040
2016-04-12T10:26:12.369Z,6380
2016-04-12T10:27:12.357Z,7100
2016-04-12T10:28:12.344Z,8128
2016-04-12T10:29:12.315Z,8200
2016-04-12T10:30:12.302Z,7564
2016-04-12T10:31:12.274Z,7424
2016-04-12T10:32:12.260Z,6972
2016-04-12T10:33:12.263Z,6784
2016-04-12T10:34:12.220Z,6596
2016-04-12T10:35:12.206Z,6192
2016-04-12T10:36:11.929Z,5904
2016-04-12T10:37:12.165Z,5628
2016-04-12T10:38:12.152Z,6112
2016-04-12T10:39:12.139Z,6712
2016-04-12T10:40:12.111Z,6780
2016-04-12T10:41:12.097Z,7204
2016-04-12T10:42:12.084Z,7184
2016-04-12T10:43:12.073Z,6988
2016-04-12T10:44:12.043Z,8016
2016-04-12T10:45:12.031Z,8784
2016-04-12T10:46:12.017Z,8752
2016-04-12T10:47:13.739Z,8028
2016-04-12T10:48:11.976Z,7512
2016-04-12T10:49:11.995Z,7224
2016-04-12T10:50:11.934Z,7052
2016-04-12T10:51:11.936Z,6800
2016-04-12T10:52:11.909Z,7092
2016-04-12T10:53:11.896Z,7232
2016-04-12T10:54:11.867Z,8336
2016-04-12T10:55:11.855Z,8720
2016-04-12T10:56:11.841Z,8788
2016-04-12T10:57:11.813Z,9424
2016-04-12T10:58:11.799Z,9472
2016-04-12T10:59:11.787Z,9612
2016-04-12T11:00:11.774Z,8492
2016-04-12T11:01:11.760Z,8656
2016-04-12T11:02:11.732Z,10192
2016-04-12T11:03:11.719Z,9588
2016-04-12T11:04:11.706Z,10500
2016-04-12T11:05:11.678Z,10204
2016-04-12T11:06:11.665Z,9904
2016-04-12T11:07:11.636Z,10716
2016-04-12T11:08:11.623Z,11696
2016-04-12T11:09:11.611Z,12108
2016-04-12T11:10:11.598Z,12580
2016-04-12T11:11:11.600Z,12788
2016-04-12T11:12:11.572Z,12408
2016-04-12T11:13:11.558Z,12048
2016-04-12T11:14:11.531Z,12240
2016-04-12T11:15:11.501Z,12400
2016-04-12T11:16:11.489Z,12192
2016-04-12T11:17:11.475Z,10936
2016-04-12T11:18:11.463Z,11668
2016-04-12T11:19:11.450Z,12696
2016-04-12T11:20:11.436Z,13556
2016-04-12T11:21:11.408Z,12716
2016-04-12T11:22:11.395Z,11008
2016-04-12T11:23:11.383Z,9540
2016-04-12T11:24:11.370Z,9220
2016-04-12T11:25:11.357Z,9672
2016-04-12T11:26:11.328Z,10596
2016-04-12T11:27:11.158Z,11768
2016-04-12T11:28:11.318Z,12704
2016-04-12T11:29:11.321Z,13412
2016-04-12T11:30:11.261Z,13992
2016-04-12T11:31:11.264Z,14424
2016-04-12T11:32:11.234Z,13748
2016-04-12T11:33:11.222Z,12468
2016-04-12T11:34:11.413Z,11468
2016-04-12T11:35:11.180Z,10852
2016-04-12T11:36:11.168Z,10868
2016-04-12T11:37:11.154Z,10924
2016-04-12T11:38:11.126Z,10312
2016-04-12T11:39:11.112Z,9420
2016-04-12T11:40:11.100Z,8492
2016-04-12T11:41:11.103Z,8176
2016-04-12T11:42:11.089Z,7520
2016-04-12T11:43:11.076Z,7724
2016-04-12T11:44:11.049Z,8872
2016-04-12T11:45:11.020Z,10492
2016-04-12T11:46:11.006Z,11520
2016-04-12T11:47:10.994Z,11740
2016-04-12T11:48:10.981Z,11916
2016-04-12T11:49:11.422Z,12124
2016-04-12T11:50:10.939Z,11020
2016-04-12T11:51:10.927Z,10684
2016-04-12T11:52:10.913Z,10764
2016-04-12T11:53:10.900Z,11724
2016-04-12T11:54:10.888Z,12292
2016-04-12T11:55:10.875Z,13204
2016-04-12T11:56:10.846Z,12896
2016-04-12T11:57:10.958Z,12928
2016-04-12T11:58:10.821Z,13748
2016-04-12T11:59:10.808Z,12860
2016-04-12T12:00:10.795Z,11384
2016-04-12T12:01:10.782Z,9964
2016-04-12T12:02:10.769Z,9012
2016-04-12T12:03:10.740Z,8972
2016-04-12T12:04:10.852Z,8848
2016-04-12T12:05:10.715Z,9264
2016-04-12T12:06:10.701Z,9492
2016-04-12T12:07:10.688Z,9336
2016-04-12T12:08:10.676Z,8796
2016-04-12T12:09:10.662Z,8252
2016-04-12T12:10:10.634Z,8136
2016-04-12T12:11:10.605Z,8248
2016-04-12T12:12:10.608Z,8308
2016-04-12T12:13:10.580Z,8660
2016-04-12T12:14:10.567Z,9288
2016-04-12T12:15:10.569Z,10464
2016-04-12T12:16:10.540Z,9872
2016-04-12T12:17:10.512Z,9072
2016-04-12T12:18:10.500Z,8608
2016-04-12T12:19:10.721Z,7928
2016-04-12T12:20:10.473Z,7692
2016-04-12T12:21:10.461Z,7192
2016-04-12T12:22:10.432Z,7008
2016-04-12T12:23:10.434Z,6396
2016-04-12T12:24:10.422Z,6468
2016-04-12T12:25:10.409Z,6852
2016-04-12T12:26:10.380Z,6956
2016-04-12T12:27:10.367Z,7540
2016-04-12T12:28:10.355Z,8360
2016-04-12T12:29:10.341Z,9072
2016-04-12T12:30:10.313Z,9404
2016-04-12T12:31:10.300Z,8836
2016-04-12T12:32:10.287Z,7864
2016-04-12T12:33:10.274Z,7004
2016-04-12T12:34:10.543Z,6552
2016-04-12T12:35:10.232Z,5736
2016-04-12T12:36:10.219Z,5300
2016-04-12T12:37:10.207Z,4960
2016-04-12T12:38:10.194Z,4720
2016-04-12T12:39:10.165Z,4640
2016-04-12T12:40:10.184Z,4660
2016-04-12T12:41:10.139Z,4764
2016-04-12T12:42:10.142Z,5348
2016-04-12T12:43:10.098Z,5476
2016-04-12T12:44:10.085Z,6048
2016-04-12T12:45:10.073Z,6320
2016-04-12T12:46:10.059Z,6732
2016-04-12T12:47:10.061Z,6348
2016-04-12T12:48:10.017Z,5940
2016-04-12T12:49:10.051Z,5768
2016-04-12T12:50:10.022Z,5348
2016-04-12T12:51:09.979Z,5944
2016-04-12T12:52:09.981Z,7016
2016-04-12T12:53:09.952Z,8256
2016-04-12T12:54:09.908Z,8832
2016-04-12T12:55:09.911Z,8540
2016-04-12T12:56:09.898Z,7956
2016-04-12T12:57:09.869Z,7732
2016-04-12T12:58:09.888Z,7708
2016-04-12T12:59:09.844Z,7516
2016-04-12T13:00:09.846Z,7620
2016-04-12T13:01:09.818Z,7576
2016-04-12T13:02:09.680Z,6968
2016-04-12T13:03:09.791Z,5928
2016-04-12T13:04:09.794Z,5692
2016-04-12T13:05:09.751Z,5868
2016-04-12T13:06:09.721Z,5580
2016-04-12T13:07:09.709Z,5448
2016-04-12T13:08:09.524Z,5964
2016-04-12T13:09:09.701Z,6300
2016-04-12T13:10:09.658Z,6304
2016-04-12T13:11:09.660Z,6504
2016-04-12T13:12:09.616Z,6100
2016-04-12T13:13:09.635Z,6108
2016-04-12T13:14:09.590Z,6864
2016-04-12T13:15:09.593Z,6668
2016-04-12T13:16:09.564Z,6684
2016-04-12T13:17:09.568Z,7504
2016-04-12T13:18:09.538Z,8748
2016-04-12T13:19:09.635Z,9864
2016-04-12T13:20:09.513Z,9992
2016-04-12T13:21:09.516Z,9292
2016-04-12T13:22:09.471Z,8468
2016-04-12T13:23:09.473Z,7588
2016-04-12T13:24:09.446Z,6940
2016-04-12T13:25:09.448Z,6528
2016-04-12T13:26:09.420Z,6668
2016-04-12T13:27:09.406Z,7040
2016-04-12T13:28:09.378Z,7472
2016-04-12T13:29:09.364Z,6800
2016-04-12T13:30:09.353Z,6196
2016-04-12T13:31:09.339Z,5660
2016-04-12T13:32:09.358Z,5380
2016-04-12T13:33:09.297Z,5344
2016-04-12T13:34:09.144Z,5888
2016-04-12T13:35:09.271Z,6896
2016-04-12T13:36:09.244Z,7424
2016-04-12T13:37:09.246Z,7560
2016-04-12T13:38:09.233Z,7236
2016-04-12T13:39:09.204Z,7124
2016-04-12T13:40:09.222Z,6996
2016-04-12T13:41:09.179Z,6692
2016-04-12T13:42:09.196Z,6960
2016-04-12T13:43:09.151Z,7020